24 juni 2022

Tijd Code Weer Temp. Zicht Plafond Wind METAR/SPECI
7:00 p.m.
V
77 °F 9 mi - 120° 120° 6 kt METAR CYTZ 242300Z AUTO 12006KT 070V160 9SM CLR 25/08 A3002 RMK SLP166 DENSITY ALT 1300FT
6:00 p.m.
V
79 °F 9 mi - 130° 130° 4 kt METAR CYTZ 242200Z AUTO 13004KT 080V140 9SM CLR 26/10 A3001 RMK SLP165 DENSITY ALT 1500FT
5:00 p.m.
V
79 °F 9 mi - 170° 170° 6 kt METAR CYTZ 242100Z AUTO 17006KT 9SM CLR 26/09 A3002 RMK SLP166 DENSITY ALT 1500FT
4:00 p.m.
V
77 °F 9 mi - 170° 170° 6 kt METAR CYTZ 242000Z AUTO 17006KT 9SM CLR 25/08 A3001 RMK SLP165 DENSITY ALT 1400FT
3:00 p.m.
V
75 °F 9 mi - 180° 180° 7 kt METAR CYTZ 241900Z AUTO 18007KT 9SM CLR 24/11 A3002 RMK SLP168 DENSITY ALT 1200FT
2:00 p.m.
V
72 °F 9 mi - 180° 180° 9 kt METAR CYTZ 241800Z AUTO 18009KT 9SM CLR 22/10 A3003 RMK SLP169 DENSITY ALT 1100FT
1:00 p.m.
V
70 °F 9 mi - 180° 180° 8 kt METAR CYTZ 241700Z AUTO 18008KT 9SM CLR 21/12 A3003 RMK SLP170 DENSITY ALT 900FT
12:00 p.m.
V
68 °F 9 mi - 190° 190° 9 kt METAR CYTZ 241600Z AUTO 19009KT 9SM CLR 20/12 A3003 RMK SLP170 DENSITY ALT 800FT
11:00 a.m.
V
66 °F 9 mi - 210° 210° 9 kt METAR CYTZ 241500Z AUTO 21009KT 200V300 9SM CLR 19/12 A3004 RMK SLP174 DENSITY ALT 600FT
10:42 a.m.
V
64 °F 9 mi - 250° 250° 5 kt METAR CYTZ 241442Z AUTO 25005KT 190V290 9SM CLR 18/12 A3005 RMK SLP177 DENSITY ALT 600FT
10:26 a.m.
V
64 °F 9 mi - 210° 210° 4 kt METAR CYTZ 241426Z AUTO 21004KT 170V300 9SM -RA CLR 18/12 A3005 RMK SLP177 DENSITY ALT 500FT
10:00 a.m.
V
64 °F 9 mi - 190° 190° 8 kt METAR CYTZ 241400Z AUTO 19008KT 180V280 9SM CLR 18/12 A3004 RMK SLP174 DENSITY ALT 600FT
9:00 a.m.
V
72 °F 9 mi - 320° 320° 6 kt METAR CYTZ 241300Z AUTO 32006KT 270V340 9SM CLR 22/10 A3003 RMK SLP171 DENSITY ALT 1100FT
8:00 a.m.
V
68 °F 9 mi - 350° 350° 5 kt METAR CYTZ 241200Z AUTO 35005KT 290V040 9SM CLR 20/09 A3003 RMK SLP170 DENSITY ALT 900FT
7:00 a.m.
V
64 °F 9 mi - 330° 330° 15 kt METAR CYTZ 241100Z AUTO 33015KT 9SM CLR 18/09 A3001 RMK SLP163 DENSITY ALT 600FT
6:00 a.m.
V
61 °F 9 mi - 320° 320° 11 kt METAR CYTZ 241000Z AUTO 32011KT 270V330 9SM CLR 16/09 A2999 RMK SLP157 DENSITY ALT 400FT
5:00 a.m.
V
61 °F 9 mi - Var Var 3 kt METAR CYTZ 240900Z AUTO VRB03KT 9SM CLR 16/09 A2997 RMK SLP151 DENSITY ALT 400FT
4:00 a.m.
V
63 °F 9 mi - 280° 280° 5 kt METAR CYTZ 240800Z AUTO 28005KT 180V350 9SM CLR 17/09 A2996 RMK SLP148 DENSITY ALT 500FT
3:00 a.m.
V
66 °F 9 mi - 320° 320° 11 kt METAR CYTZ 240700Z AUTO 32011KT 9SM CLR 19/09 A2996 RMK SLP148 DENSITY ALT 700FT
2:00 a.m.
V
68 °F 9 mi - 330° 330° 7 - 17 kt METAR CYTZ 240600Z AUTO 33007G17KT 9SM CLR 20/09 A2996 RMK SLP148 DENSITY ALT 900FT
1:00 a.m.
V
68 °F 9 mi - 330° 330° 8 - 15 kt METAR CYTZ 240500Z AUTO 33008G15KT 9SM CLR 20/09 A2996 RMK SLP147 DENSITY ALT 900FT
12:00 a.m.
V
70 °F 9 mi - 340° 340° 9 - 20 kt METAR CYTZ 240400Z AUTO 34009G20KT 290V010 9SM CLR 21/08 A2996 RMK SLP147 DENSITY ALT 1000FT

23 juni 2022

Tijd Code Weer Temp. Zicht Plafond Wind METAR/SPECI
11:00 p.m.
V
72 °F 9 mi - 340° 340° 7 kt METAR CYTZ 240300Z AUTO 34007KT 300V020 9SM CLR 22/06 A2995 RMK SLP143 DENSITY ALT 1100FT
10:00 p.m.
V
73 °F 9 mi - 360° 360° 8 kt METAR CYTZ 240200Z AUTO 36008KT 310V050 9SM CLR 23/09 A2994 RMK SLP140 DENSITY ALT 1200FT
9:00 p.m.
V
75 °F 9 mi - 350° 350° 8 - 15 kt METAR CYTZ 240100Z AUTO 35008G15KT 260V020 9SM CLR 24/12 A2992 RMK SLP134 DENSITY ALT 1400FT
8:00 p.m.
V
79 °F 9 mi - 340° 340° 8 - 16 kt METAR CYTZ 240000Z AUTO 34008G16KT 250V030 9SM CLR 26/11 A2991 RMK SLP131 DENSITY ALT 1600FT
7:00 p.m.
V
81 °F 9 mi - 340° 340° 11 - 21 kt METAR CYTZ 232300Z AUTO 34011G21KT 290V350 9SM CLR 27/10 A2990 RMK SLP127 DENSITY ALT 1700FT
6:05 p.m.
V
81 °F 9 mi - Var Var 14 - 21 kt METAR CYTZ 232205Z AUTO VRB14G21KT 9SM CLR 27/12 A2989 RMK SLP123 DENSITY ALT 1700FT
5:00 p.m.
V
68 °F 9 mi - 240° 240° 6 kt METAR CYTZ 232100Z AUTO 24006KT 210V280 9SM CLR 20/15 A2990 RMK SLP128 DENSITY ALT 1000FT
4:00 p.m.
V
72 °F 9 mi - Var Var 2 kt METAR CYTZ 232000Z AUTO VRB02KT 9SM CLR 22/16 A2991 RMK SLP130 DENSITY ALT 1100FT
3:00 p.m.
V
70 °F 9 mi - 280° 280° 6 kt METAR CYTZ 231900Z AUTO 28006KT 180V300 9SM CLR 21/15 A2992 RMK SLP133 DENSITY ALT 1000FT
2:00 p.m.
V
66 °F 9 mi - 200° 200° 7 kt METAR CYTZ 231800Z AUTO 20007KT 170V290 9SM FEW060 19/15 A2992 RMK SLP133 DENSITY ALT 800FT
1:00 p.m.
V
66 °F 9 mi 6.000 ft 200° 200° 9 kt METAR CYTZ 231700Z AUTO 20009KT 170V290 9SM BKN060 19/15 A2991 RMK SLP131 DENSITY ALT 900FT
12:00 p.m.
V
70 °F 9 mi - 170° 170° 10 kt METAR CYTZ 231600Z AUTO 17010KT 9SM FEW055 21/15 A2990 RMK SLP127 DENSITY ALT 1100FT
11:00 a.m.
V
73 °F 9 mi - 180° 180° 7 kt METAR CYTZ 231500Z AUTO 18007KT 060V200 9SM FEW066 23/15 A2991 RMK SLP129 DENSITY ALT 1300FT
10:00 a.m.
V
73 °F 9 mi - 320° 320° 10 - 16 kt METAR CYTZ 231400Z AUTO 32010G16KT 270V040 9SM CLR 23/15 A2990 RMK SLP125 DENSITY ALT 1400FT
9:00 a.m.
V
72 °F 9 mi - 360° 360° 7 kt METAR CYTZ 231300Z AUTO 36007KT 300V030 9SM CLR 22/14 A2990 RMK SLP124 DENSITY ALT 1200FT
8:00 a.m.
V
68 °F 9 mi - 330° 330° 5 - 16 kt METAR CYTZ 231200Z AUTO 33005G16KT 270V360 9SM CLR 20/13 A2989 RMK SLP121 DENSITY ALT 900FT
7:00 a.m.
V
64 °F 9 mi - 330° 330° 8 - 17 kt METAR CYTZ 231100Z AUTO 33008G17KT 240V350 9SM CLR 18/12 A2988 RMK SLP118 DENSITY ALT 800FT
6:00 a.m.
V
63 °F 9 mi - 320° 320° 13 - 19 kt METAR CYTZ 231000Z AUTO 32013G19KT 9SM CLR 17/11 A2987 RMK SLP115 DENSITY ALT 700FT
5:00 a.m.
V
63 °F 9 mi - 310° 310° 12 kt METAR CYTZ 230900Z AUTO 31012KT 9SM CLR 17/11 A2987 RMK SLP114 DENSITY ALT 700FT
4:00 a.m.
V
61 °F 9 mi - 290° 290° 11 kt METAR CYTZ 230800Z AUTO 29011KT 9SM CLR 16/11 A2986 RMK SLP113 DENSITY ALT 500FT
3:00 a.m.
V
64 °F 9 mi - 320° 320° 12 kt METAR CYTZ 230700Z AUTO 32012KT 9SM CLR 18/11 A2987 RMK SLP116 DENSITY ALT 800FT
2:00 a.m.
V
66 °F 9 mi - 320° 320° 16 - 24 kt METAR CYTZ 230600Z AUTO 32016G24KT 9SM CLR 19/11 A2988 RMK SLP118 DENSITY ALT 900FT
1:00 a.m.
V
68 °F 9 mi - 310° 310° 18 - 29 kt METAR CYTZ 230500Z AUTO 31018G29KT 9SM CLR 20/10 A2988 RMK SLP118 DENSITY ALT 1000FT
12:00 a.m.
V
72 °F 9 mi - 310° 310° 19 kt METAR CYTZ 230400Z AUTO 31019KT 9SM FEW210 22/12 A2988 RMK SLP119 DENSITY ALT 1200FT

22 juni 2022

Tijd Code Weer Temp. Zicht Plafond Wind METAR/SPECI
11:00 p.m.
V
75 °F 9 mi - 320° 320° 14 - 21 kt METAR CYTZ 230300Z AUTO 32014G21KT 250V340 9SM CLR 24/14 A2987 RMK SLP116 DENSITY ALT 1400FT
10:00 p.m.
V
77 °F 9 mi - 330° 330° 8 - 19 kt METAR CYTZ 230200Z AUTO 33008G19KT 9SM CLR 25/15 A2986 RMK SLP112 DENSITY ALT 1600FT
9:00 p.m.
V
81 °F 9 mi - 360° 360° 8 kt METAR CYTZ 230100Z AUTO 36008KT 9SM CLR 27/14 A2983 RMK SLP101 DENSITY ALT 1800FT
8:42 p.m.
V
81 °F 9 mi - 320° 320° 18 - 23 kt METAR CYTZ 230042Z AUTO 32018G23KT 9SM CLR 27/14 A2982 RMK SLP099 DENSITY ALT 1900FT
8:00 p.m.
V
82 °F 9 mi - 350° 350° 8 - 21 kt METAR CYTZ 230000Z AUTO 35008G21KT 300V040 9SM CLR 28/15 A2983 RMK SLP101 DENSITY ALT 2000FT
7:00 p.m.
V
84 °F 9 mi - 330° 330° 16 - 34 kt METAR CYTZ 222300Z AUTO 33016G34KT 9SM CLR 29/16 A2980 RMK SLP092 DENSITY ALT 2100FT
6:00 p.m.
V
88 °F 9 mi - 320° 320° 20 - 25 kt METAR CYTZ 222200Z AUTO 32020G25KT 9SM CLR 31/17 A2979 RMK SLP089 DENSITY ALT 2300FT
5:00 p.m.
V
91 °F 9 mi - 320° 320° 20 - 26 kt METAR CYTZ 222100Z AUTO 32020G26KT 9SM CLR 33/18 A2978 RMK SLP087 DENSITY ALT 2500FT
4:00 p.m.
V
91 °F 9 mi - 320° 320° 15 - 23 kt METAR CYTZ 222000Z AUTO 32015G23KT 9SM CLR 33/19 A2979 RMK SLP089 DENSITY ALT 2600FT
3:12 p.m.
V
95 °F 9 mi - 320° 320° 17 - 24 kt METAR CYTZ 221912Z AUTO 32017G24KT 9SM CLR 35/16 A2977 RMK WSHFT AT 1901Z SLP081 DENSITY ALT 2800FT
3:00 p.m.
V
91 °F 9 mi - 270° 270° 14 - 21 kt METAR CYTZ 221900Z AUTO 27014G21KT 9SM CLR 33/17 A2977 RMK SLP081 DENSITY ALT 2600FT
2:44 p.m.
V
93 °F 9 mi - 280° 280° 18 - 23 kt METAR CYTZ 221844Z AUTO 28018G23KT 9SM CLR 34/18 A2977 RMK SLP081 DENSITY ALT 2700FT
2:00 p.m.
V
84 °F 9 mi - 250° 250° 7 kt METAR CYTZ 221800Z AUTO 25007KT 190V280 9SM CLR 29/21 A2978 RMK LTNG DIST S SLP086 DENSITY ALT 2100FT
1:00 p.m.
V
81 °F 9 mi 5.500 ft 210° 210° 3 kt METAR CYTZ 221700Z AUTO 21003KT 180V300 9SM BKN055 BKN092 27/21 A2980 RMK LTNG DIST NE E S SLP093 DENSITY ALT 1800FT
12:49 p.m.
V
79 °F 6 mi - 260° 260° 5 kt METAR CYTZ 221649Z AUTO 26005KT 200V310 6SM HZ SCT055 SCT092 26/21 A2981 RMK LTNG DIST E S SLP095 DENSITY ALT 1800FT
12:32 p.m.
V
79 °F 9 mi 5.000 ft Var Var 5 kt METAR CYTZ 221632Z AUTO VRB05KT 9SM VCTS BKN050 26/21 A2981 RMK SLP097 DENSITY ALT 1700FT
12:00 p.m.
V
77 °F 9 mi 5.500 ft Var 000° 0 kt METAR CYTZ 221600Z AUTO 00000KT 9SM BKN055 BKN071 25/20 A2981 RMK SLP098 DENSITY ALT 1600FT
11:00 a.m.
V
73 °F 9 mi - 220° 220° 3 kt METAR CYTZ 221500Z AUTO 22003KT 180V260 9SM CLR 23/18 A2982 RMK SLP101 DENSITY ALT 1400FT
Oudere gegevens

Installeer onze app

Gemakkelijke toegang tot al het luchtvaartweer op je mobiele telefoon en tablet.
Met veel functies die niet op de website beschikbaar zijn, zoals offline ondersteuning en een persoonlijke lijst van vliegvelden.

Met cookies volgen wij en derde partijen jouw internetgedrag binnen onze site. Als je verdergaat gaan we ervan uit dat je dit goedvindt. Meer info